Time;durP1;ratioP1;P1;durP2;ratioP2;P2;SDS_P1;SDS_P2;PMS_P1;PMS_P2;Temp;Humidity;BMP_temperature;BMP_pressure;BME280_temperature;BME280_humidity;BME280_pressure;Samples;Min_cycle;Max_cycle;Signal;HPM_P1;HPM_P2
2023/04/17 00:00:49;;;;;;;16.00;5.57;;;;;;;10.21;97.88;100668.70;123922;1099;104354;-79
2023/04/17 00:03:24;;;;;;;10.67;5.57;;;;;;;10.18;98.69;100672.09;123955;1099;104165;-80
2023/04/17 00:05:57;;;;;;;13.23;5.63;;;;;;;10.16;98.31;100668.52;123954;1099;104229;-80
2023/04/17 00:08:28;;;;;;;12.27;5.67;;;;;;;10.16;98.68;100667.60;123779;1099;104271;-80
2023/04/17 00:10:59;;;;;;;15.23;5.80;;;;;;;10.15;98.64;100676.33;123852;1099;104197;-80
2023/04/17 00:13:31;;;;;;;18.97;5.90;;;;;;;10.12;98.36;100666.59;123768;1099;104265;-80
2023/04/17 00:16:02;;;;;;;11.53;5.00;;;;;;;10.14;98.82;100674.52;123805;1099;104264;-79
2023/04/17 00:18:33;;;;;;;10.60;5.20;;;;;;;10.13;99.25;100672.72;123937;1099;104884;-80
2023/04/17 00:21:05;;;;;;;12.90;5.10;;;;;;;10.12;98.80;100668.34;123761;1099;104162;-80
2023/04/17 00:23:36;;;;;;;12.63;5.13;;;;;;;10.11;98.76;100663.91;123619;1099;104332;-80
2023/04/17 00:26:07;;;;;;;8.77;4.30;;;;;;;10.10;98.74;100667.36;123700;1099;104381;-79
2023/04/17 00:28:39;;;;;;;12.07;4.57;;;;;;;10.10;98.94;100670.89;123697;1100;104271;-81
2023/04/17 00:31:10;;;;;;;11.10;4.77;;;;;;;10.11;98.72;100674.40;123777;1099;104329;-79
2023/04/17 00:33:41;;;;;;;8.70;4.50;;;;;;;10.08;98.91;100681.32;123897;1099;104280;-82
2023/04/17 00:36:14;;;;;;;10.33;4.30;;;;;;;10.07;98.70;100683.88;123759;1099;104223;-81
2023/04/17 00:38:46;;;;;;;13.35;4.95;;;;;;;10.07;98.64;100691.75;124048;1099;104255;-80
2023/04/17 00:41:17;;;;;;;10.93;4.90;;;;;;;10.05;98.97;100689.06;124221;1099;104309;-81
2023/04/17 00:43:49;;;;;;;13.17;4.53;;;;;;;10.04;98.36;100687.27;123889;1102;104325;-78
2023/04/17 00:46:20;;;;;;;14.27;4.97;;;;;;;10.04;98.66;100695.13;123626;1099;104236;-79
2023/04/17 00:48:52;;;;;;;13.17;4.50;;;;;;;10.03;98.66;100701.19;123527;1099;104476;-80
2023/04/17 00:51:23;;;;;;;15.90;4.87;;;;;;;10.01;97.77;100696.73;123634;1099;104303;-79
2023/04/17 00:53:56;;;;;;;9.30;4.50;;;;;;;9.98;97.65;100705.36;123793;1099;104187;-80
2023/04/17 00:56:28;;;;;;;10.97;4.67;;;;;;;9.97;98.01;100694.81;123750;1099;104211;-79
2023/04/17 00:59:01;;;;;;;12.97;4.97;;;;;;;9.95;97.72;100699.11;123581;1099;104249;-79
2023/04/17 01:01:32;;;;;;;12.77;4.70;;;;;;;9.94;98.08;100703.46;123781;1099;104389;-79
2023/04/17 01:04:05;;;;;;;12.77;5.00;;;;;;;9.93;97.92;100703.40;123751;1102;104242;-79
2023/04/17 01:06:36;;;;;;;12.73;4.70;;;;;;;9.93;97.88;100701.66;123693;1099;104264;-80
2023/04/17 01:09:08;;;;;;;10.30;4.83;;;;;;;9.92;97.33;100702.48;123736;1099;104210;-80
2023/04/17 01:11:39;;;;;;;9.03;4.47;;;;;;;9.89;97.86;100699.73;123908;1099;104268;-79
2023/04/17 01:14:10;;;;;;;10.77;4.50;;;;;;;9.88;97.93;100704.09;123723;1102;104169;-80
2023/04/17 01:16:43;;;;;;;11.00;5.40;;;;;;;9.87;98.02;100704.03;123736;1099;104427;-79
2023/04/17 01:19:16;;;;;;;14.57;5.30;;;;;;;9.86;97.33;100708.39;123737;1098;104280;-79
2023/04/17 01:21:48;;;;;;;12.82;5.42;;;;;;;9.84;97.32;100710.02;123675;1100;104287;-80
2023/04/17 01:24:19;;;;;;;14.13;5.60;;;;;;;9.85;98.13;100708.32;123619;1098;104319;-80
2023/04/17 01:26:51;;;;;;;13.30;5.80;;;;;;;9.83;97.50;100710.88;123867;1099;104376;-79
2023/04/17 01:29:22;;;;;;;13.33;5.77;;;;;;;9.81;96.97;100715.14;123765;1100;104261;-81
2023/04/17 01:31:54;;;;;;;15.80;5.53;;;;;;;9.80;97.03;100720.31;123767;1099;104309;-80
2023/04/17 01:34:26;;;;;;;12.70;5.97;;;;;;;9.79;97.71;100714.19;123860;1099;104195;-79
2023/04/17 01:36:57;;;;;;;12.90;5.97;;;;;;;9.78;97.50;100721.98;123814;1102;104656;-79
2023/04/17 01:39:29;;;;;;;15.40;5.60;;;;;;;9.77;97.01;100710.62;123776;1099;104316;-81
2023/04/17 01:42:01;;;;;;;12.50;5.67;;;;;;;9.78;97.23;100716.74;123837;1099;104386;-79
2023/04/17 01:44:32;;;;;;;14.73;5.50;;;;;;;9.76;97.10;100713.17;123801;1099;104341;-80
2023/04/17 01:47:04;;;;;;;10.77;4.80;;;;;;;9.77;96.64;100717.56;123957;1099;104236;-81
2023/04/17 01:49:35;;;;;;;13.60;4.97;;;;;;;9.75;97.31;100713.99;124132;1098;104223;-79
2023/04/17 01:52:07;;;;;;;14.43;4.97;;;;;;;9.74;97.01;100717.44;124042;1099;104166;-80
2023/04/17 01:54:38;;;;;;;12.30;5.40;;;;;;;9.71;96.78;100720.84;123838;1099;104265;-79
2023/04/17 01:57:09;;;;;;;13.90;5.47;;;;;;;9.69;97.22;100720.77;124115;1099;104268;-79
2023/04/17 01:59:41;;;;;;;12.30;4.93;;;;;;;9.65;96.23;100731.94;123837;1099;104272;-80
2023/04/17 02:02:12;;;;;;;12.27;5.40;;;;;;;9.64;96.88;100729.25;124005;1099;104168;-79
2023/04/17 02:04:44;;;;;;;14.20;4.97;;;;;;;9.63;97.08;100724.83;123814;1099;104296;-82
2023/04/17 02:07:15;;;;;;;15.00;5.43;;;;;;;9.62;96.51;100726.56;123955;1098;104488;-80
2023/04/17 02:09:46;;;;;;;11.77;4.80;;;;;;;9.59;96.20;100722.93;124030;1099;104251;-79
2023/04/17 02:12:18;;;;;;;12.67;5.10;;;;;;;9.60;96.50;100727.31;123769;1099;110914;-82
2023/04/17 02:14:49;;;;;;;11.33;5.33;;;;;;;9.57;97.00;100732.42;124090;1099;104290;-80
2023/04/17 02:17:21;;;;;;;11.43;4.80;;;;;;;9.56;96.82;100728.92;124120;1099;104342;-79
2023/04/17 02:19:53;;;;;;;9.97;5.13;;;;;;;9.56;96.99;100728.92;123956;1099;104363;-79
2023/04/17 02:22:24;;;;;;;14.27;5.63;;;;;;;9.53;95.93;100736.64;123703;1102;104322;-79
2023/04/17 02:24:56;;;;;;;11.10;5.83;;;;;;;9.52;96.42;100747.94;124071;1099;104242;-80
2023/04/17 02:27:27;;;;;;;15.80;6.00;;;;;;;9.50;95.76;100740.02;123775;1099;104268;-80
2023/04/17 02:29:58;;;;;;;14.30;5.90;;;;;;;9.49;96.32;100740.87;123930;1099;104329;-81
2023/04/17 02:32:29;;;;;;;13.33;6.07;;;;;;;9.48;96.21;100754.78;123817;1099;104274;-80
2023/04/17 02:35:01;;;;;;;13.83;6.23;;;;;;;9.48;96.22;100751.28;123752;1099;104351;-81
2023/04/17 02:37:32;;;;;;;16.00;6.20;;;;;;;9.46;96.48;100753.83;124064;1099;104268;-80
2023/04/17 02:40:06;;;;;;;12.47;5.80;;;;;;;9.45;96.43;100749.41;124056;1099;104264;-82
2023/04/17 02:42:38;;;;;;;12.50;5.50;;;;;;;9.46;96.11;100753.83;124434;1099;104267;-81
2023/04/17 02:45:11;;;;;;;17.57;7.20;;;;;;;9.46;96.63;100745.97;123728;1100;104370;-79
2023/04/17 02:47:42;;;;;;;15.37;6.30;;;;;;;9.44;96.26;100749.34;124100;1099;104284;-82
2023/04/17 02:50:14;;;;;;;13.57;6.43;;;;;;;9.41;95.87;100739.64;123797;1099;104323;-82
2023/04/17 02:53:18;;;;;;;17.87;7.50;;;;;;;9.38;95.70;100752.60;123597;1099;104249;-79
2023/04/17 02:55:49;;;;;;;13.97;6.70;;;;;;;9.39;95.82;100748.25;123726;1099;104340;-80
2023/04/17 02:58:22;;;;;;;13.03;6.65;;;;;;;9.38;96.31;100749.06;123758;1099;104312;-80
2023/04/17 03:01:02;;;;;;;13.73;6.47;;;;;;;9.40;96.22;100752.67;123880;1099;104437;-79
2023/04/17 03:03:37;;;;;;;14.10;6.50;;;;;;;9.39;96.11;100750.87;123922;1099;111996;-79
2023/04/17 03:06:10;;;;;;;16.87;6.17;;;;;;;9.38;95.98;100752.60;123750;1099;104412;-78
2023/04/17 03:08:42;;;;;;;14.77;6.00;;;;;;;9.38;96.41;100749.98;123927;1099;104261;-79
2023/04/17 03:11:14;;;;;;;11.80;6.17;;;;;;;9.39;96.44;100756.11;123619;1099;104351;-79
2023/04/17 03:13:45;;;;;;;11.57;5.87;;;;;;;9.39;96.18;100753.48;123668;1099;104245;-80
2023/04/17 03:16:17;;;;;;;13.17;5.57;;;;;;;9.36;95.89;100762.09;123551;1099;104236;-79
2023/04/17 03:18:49;;;;;;;11.93;5.53;;;;;;;9.35;96.28;100763.83;123984;1099;104367;-80
2023/04/17 03:21:21;;;;;;;13.93;5.30;;;;;;;9.35;95.90;100757.70;123990;1099;104344;-80
2023/04/17 03:23:53;;;;;;;12.57;5.40;;;;;;;9.37;96.31;100763.01;124358;1098;104306;-78
2023/04/17 03:26:25;;;;;;;12.33;5.37;;;;;;;9.38;95.90;100759.55;123752;1099;104329;-79
2023/04/17 03:28:56;;;;;;;12.13;5.20;;;;;;;9.38;96.02;100763.08;123767;1099;104642;-80
2023/04/17 03:31:27;;;;;;;11.53;5.37;;;;;;;9.37;95.23;100765.63;124182;1099;104345;-80
2023/04/17 03:33:59;;;;;;;12.80;5.83;;;;;;;9.32;95.08;100761.07;123871;1099;104294;-80
2023/04/17 03:36:31;;;;;;;12.27;4.97;;;;;;;9.31;95.40;100769.74;123905;1099;104376;-80
2023/04/17 03:39:03;;;;;;;10.60;5.23;;;;;;;9.27;95.29;100769.53;123736;1099;104284;-79
2023/04/17 03:41:34;;;;;;;10.53;4.90;;;;;;;9.26;94.86;100768.65;123859;1099;104293;-80
2023/04/17 03:44:05;;;;;;;11.70;5.20;;;;;;;9.27;95.46;100766.91;123792;1099;105607;-80
2023/04/17 03:46:37;;;;;;;10.20;4.83;;;;;;;9.23;94.69;100760.66;123852;1099;104409;-80
2023/04/17 03:49:08;;;;;;;10.17;4.70;;;;;;;9.22;95.23;100769.32;123998;1099;104386;-79
2023/04/17 03:51:41;;;;;;;10.13;4.73;;;;;;;9.20;94.91;100767.48;123784;1099;104185;-79
2023/04/17 03:54:17;;;;;;;10.73;5.07;;;;;;;9.20;94.27;100784.08;123715;1099;104325;-79
2023/04/17 03:56:49;;;;;;;12.40;5.37;;;;;;;9.17;94.01;100779.59;124175;1099;104277;-79
2023/04/17 03:59:22;;;;;;;10.70;5.10;;;;;;;9.18;93.72;100785.74;123927;1099;104320;-79
2023/04/17 04:01:54;;;;;;;13.07;5.30;;;;;;;9.19;95.07;100779.66;123722;1099;104249;-79
2023/04/17 04:04:27;;;;;;;11.50;5.57;;;;;;;9.16;94.00;100782.13;123917;1099;104274;-79
2023/04/17 04:07:06;;;;;;;13.53;5.00;;;;;;;9.15;93.69;100777.74;123768;1099;104217;-79
2023/04/17 04:09:38;;;;;;;12.77;4.90;;;;;;;9.17;94.57;100774.34;123996;1099;104264;-80
2023/04/17 04:12:10;;;;;;;14.70;5.10;;;;;;;9.21;94.72;100774.49;124144;1099;104277;-80
2023/04/17 04:14:45;;;;;;;14.70;5.27;;;;;;;9.18;92.98;100770.03;123905;1099;104309;-79
2023/04/17 04:17:17;;;;;;;13.20;5.30;;;;;;;9.17;93.33;100781.32;124054;1099;104332;-81
2023/04/17 04:19:48;;;;;;;11.47;4.97;;;;;;;9.14;93.09;100779.45;123742;1099;104309;-80
2023/04/17 04:22:21;;;;;;;11.07;4.77;;;;;;;9.18;94.37;100783.13;124107;1099;104249;-82
2023/04/17 04:24:55;;;;;;;12.23;5.27;;;;;;;9.21;94.06;100782.34;124029;1099;104309;-83
2023/04/17 04:27:32;;;;;;;9.57;5.07;;;;;;;9.22;93.79;100781.53;124249;1099;104245;-82
2023/04/17 04:30:04;;;;;;;12.20;5.40;;;;;;;9.22;93.83;100763.20;124284;1099;104252;-82
2023/04/17 04:32:38;;;;;;;12.30;5.10;;;;;;;9.24;94.02;100772.93;123995;1099;104358;-83
2023/04/17 04:35:11;;;;;;;12.30;5.13;;;;;;;9.23;93.69;100775.48;123854;1099;104703;-83
2023/04/17 04:37:45;;;;;;;13.17;4.90;;;;;;;9.23;93.82;100768.51;124238;1099;104178;-84
2023/04/17 04:40:17;;;;;;;15.43;5.50;;;;;;;9.26;93.28;100770.38;124104;1099;104669;-82
2023/04/17 04:42:48;;;;;;;10.13;4.83;;;;;;;9.30;93.50;100769.67;124161;1099;104306;-83
2023/04/17 04:45:25;;;;;;;11.53;5.23;;;;;;;9.26;92.54;100763.41;123960;1098;104242;-83
2023/04/17 04:47:57;;;;;;;11.13;4.93;;;;;;;9.28;92.51;100766.09;124107;1099;104210;-81
2023/04/17 04:50:28;;;;;;;12.83;5.17;;;;;;;9.29;92.06;100766.17;123924;1099;104373;-82
2023/04/17 04:52:59;;;;;;;13.13;5.03;;;;;;;9.29;91.82;100766.17;124262;1099;104696;-83
2023/04/17 04:55:46;;;;;;;9.23;4.97;;;;;;;9.35;93.10;100760.33;124041;1099;104242;-81
2023/04/17 04:58:18;;;;;;;12.97;5.10;;;;;;;9.35;91.57;100766.45;124078;1099;104241;-83
2023/04/17 05:00:50;;;;;;;12.93;5.07;;;;;;;9.33;91.86;100760.25;123978;1099;104204;-82
2023/04/17 05:03:28;;;;;;;14.20;5.17;;;;;;;9.32;92.15;100762.80;124149;1099;104319;-84
2023/04/17 05:06:00;;;;;;;10.47;4.87;;;;;;;9.29;91.30;100768.78;123938;1099;108236;-84
2023/04/17 05:08:35;;;;;;;12.03;4.50;;;;;;;9.26;90.77;100768.65;123942;1099;104328;-82
2023/04/17 05:11:13;;;;;;;12.27;4.83;;;;;;;9.25;90.60;100760.72;124121;1099;104274;-84
2023/04/17 05:13:44;;;;;;;9.37;4.83;;;;;;;9.16;89.27;100762.11;123847;1102;104284;-83
2023/04/17 05:16:22;;;;;;;8.93;4.53;;;;;;;9.15;90.35;100759.42;123899;1099;118675;-83
2023/04/17 05:18:53;;;;;;;12.10;4.77;;;;;;;9.13;90.25;100759.34;124111;1099;104393;-86
2023/04/17 05:21:32;;;;;;;12.37;5.23;;;;;;;9.07;89.99;100748.59;124010;1099;104258;-83
2023/04/17 05:24:05;;;;;;;11.93;4.60;;;;;;;9.07;89.62;100742.44;124279;1099;104280;-84
2023/04/17 05:26:37;;;;;;;12.60;4.57;;;;;;;9.01;88.82;100735.23;124106;1099;104259;-82
2023/04/17 05:29:08;;;;;;;10.23;4.87;;;;;;;9.00;90.48;100739.55;124003;1099;104265;-81
2023/04/17 05:31:40;;;;;;;11.40;5.20;;;;;;;9.08;90.73;100744.25;123967;1100;104376;-80
2023/04/17 05:34:16;;;;;;;10.93;4.47;;;;;;;9.11;89.82;100739.15;124114;1100;104287;-81
2023/04/17 05:36:48;;;;;;;11.03;4.73;;;;;;;9.14;91.09;100739.29;124108;1099;104354;-80
2023/04/17 05:39:19;;;;;;;10.33;4.47;;;;;;;9.19;90.90;100737.77;123847;1102;104294;-81
2023/04/17 05:41:50;;;;;;;11.87;4.43;;;;;;;9.26;91.12;100729.38;123866;1099;104344;-81
2023/04/17 05:44:22;;;;;;;7.95;4.80;;;;;;;9.28;90.91;100738.18;124022;1099;104508;-83
2023/04/17 05:46:55;;;;;;;11.73;4.50;;;;;;;9.33;91.03;100728.83;123876;1099;104284;-81
2023/04/17 05:49:27;;;;;;;9.53;4.17;;;;;;;9.35;90.74;100736.75;123939;1099;104360;-82
2023/04/17 05:51:58;;;;;;;9.37;4.23;;;;;;;9.35;90.33;100740.25;124024;1099;104287;-84
2023/04/17 05:54:29;;;;;;;12.63;4.70;;;;;;;9.37;90.32;100748.18;123925;1099;104348;-83
2023/04/17 05:57:02;;;;;;;10.07;4.27;;;;;;;9.42;90.66;100759.75;124230;1098;104414;-84
2023/04/17 05:59:33;;;;;;;7.90;4.10;;;;;;;9.48;90.79;100764.38;123964;1099;104344;-82
2023/04/17 06:02:05;;;;;;;10.70;4.50;;;;;;;9.56;90.31;100768.22;123968;1098;104370;-82
2023/04/17 06:04:37;;;;;;;10.53;4.50;;;;;;;9.61;89.05;100761.45;124344;1102;104674;-84
2023/04/17 06:07:10;;;;;;;10.43;3.90;;;;;;;9.69;89.59;100757.45;123802;1099;104366;-80
2023/04/17 06:09:41;;;;;;;8.87;4.50;;;;;;;9.82;89.68;100757.98;123970;1099;104239;-79
2023/04/17 06:12:14;;;;;;;11.27;4.13;;;;;;;9.85;89.16;100758.12;123802;1099;104268;-80
2023/04/17 06:14:45;;;;;;;;;;;;;;;9.89;88.52;100749.53;123893;1099;104239;-81
2023/04/17 06:17:16;;;;;;;9.77;4.50;;;;;;;9.85;86.69;100751.14;124150;1099;104224;-81
2023/04/17 06:19:47;;;;;;;10.80;4.30;;;;;;;9.91;87.06;100750.52;123948;1099;104424;-84
2023/04/17 06:22:18;;;;;;;11.00;3.87;;;;;;;9.98;87.68;100747.30;124103;1099;104341;-83
2023/04/17 06:24:51;;;;;;;12.27;4.10;;;;;;;10.09;87.39;100758.24;124203;1099;104165;-81
2023/04/17 06:27:22;;;;;;;10.87;4.30;;;;;;;10.11;85.72;100759.19;123903;1099;104318;-83
2023/04/17 06:29:54;;;;;;;9.70;4.30;;;;;;;10.04;84.00;100751.92;124170;1100;104268;-80
2023/04/17 06:32:25;;;;;;;9.50;4.00;;;;;;;10.02;84.77;100754.48;124236;1099;104252;-83
2023/04/17 06:34:57;;;;;;;7.97;4.17;;;;;;;10.08;86.74;100752.11;124203;1098;104357;-85
2023/04/17 06:37:36;;;;;;;13.23;5.40;;;;;;;10.17;86.58;100753.31;124049;1099;104338;-78
2023/04/17 06:40:11;;;;;;;10.60;4.10;;;;;;;10.21;85.60;100763.11;123894;1099;104296;-84
2023/04/17 06:42:42;;;;;;;9.63;4.07;;;;;;;10.22;85.14;100768.42;123845;1099;104370;-78
2023/04/17 06:45:17;;;;;;;9.70;4.00;;;;;;;10.23;85.53;100761.44;123675;1099;104450;-80
2023/04/17 06:47:48;;;;;;;8.13;4.13;;;;;;;10.20;83.61;100771.80;124069;1099;104386;-82
2023/04/17 06:50:23;;;;;;;8.77;4.40;;;;;;;10.30;86.24;100767.82;123710;1099;104431;-77
2023/04/17 06:52:55;;;;;;;10.67;4.00;;;;;;;10.42;86.23;100774.52;123603;1099;104424;-78
2023/04/17 06:55:26;;;;;;;10.40;4.00;;;;;;;10.48;86.12;100778.22;124021;1099;104281;-84
2023/04/17 06:57:57;;;;;;;11.93;4.37;;;;;;;10.46;85.04;100779.89;123886;1099;104359;-82
2023/04/17 07:00:30;;;;;;;10.05;4.10;;;;;;;10.40;84.61;100780.53;124131;1099;104251;-81
2023/04/17 07:03:01;;;;;;;9.87;3.70;;;;;;;10.39;84.61;100779.64;124532;1099;104238;-80
2023/04/17 07:05:35;;;;;;;9.23;3.70;;;;;;;10.27;81.39;100784.34;124189;1099;104351;-83
2023/04/17 07:08:05;;;;;;;;;;;;;;;10.19;83.32;100790.98;123854;1099;104344;-81
2023/04/17 07:10:36;;;;;;;13.03;4.67;;;;;;;10.13;82.71;100790.72;124136;1099;104337;-79
2023/04/17 07:13:08;;;;;;;7.67;3.97;;;;;;;10.08;82.90;100786.20;123983;1099;104651;-81
2023/04/17 07:15:39;;;;;;;7.97;4.33;;;;;;;10.07;83.13;100784.39;123932;1099;104290;-82
2023/04/17 07:18:10;;;;;;;9.60;4.10;;;;;;;10.13;84.03;100789.02;124244;1099;104251;-84
2023/04/17 07:20:41;;;;;;;8.35;4.00;;;;;;;10.03;81.86;100787.70;124433;1099;104300;-79
2023/04/17 07:23:14;;;;;;;11.40;4.20;;;;;;;10.01;82.76;100786.76;123872;1099;104444;-82
2023/04/17 07:25:45;;;;;;;12.60;4.27;;;;;;;10.13;83.96;100786.39;123886;1099;104297;-80
2023/04/17 07:28:17;;;;;;;7.80;3.83;;;;;;;10.20;83.22;100779.67;123858;1099;104207;-82
2023/04/17 07:30:48;;;;;;;8.60;4.00;;;;;;;10.27;83.27;100792.22;124231;1099;104277;-81
2023/04/17 07:33:19;;;;;;;9.00;3.87;;;;;;;10.29;81.61;100790.55;124184;1099;104255;-79
2023/04/17 07:35:52;;;;;;;13.47;3.77;;;;;;;10.24;81.45;100786.84;123927;1099;104325;-81
2023/04/17 07:38:23;;;;;;;9.40;4.10;;;;;;;10.18;81.36;100782.23;123862;1098;104408;-78
2023/04/17 07:40:54;;;;;;;10.30;3.80;;;;;;;10.19;82.04;100786.66;123965;1099;104370;-79
2023/04/17 07:43:25;;;;;;;11.40;3.93;;;;;;;10.26;82.45;100787.79;124533;1099;104300;-81
2023/04/17 07:45:57;;;;;;;12.63;4.00;;;;;;;10.31;81.38;100785.36;123695;1099;104290;-81
2023/04/17 07:48:29;;;;;;;9.03;3.70;;;;;;;10.34;82.69;100786.41;124021;1098;104243;-78
2023/04/17 07:51:02;;;;;;;10.87;3.93;;;;;;;10.41;82.07;100779.70;123905;1099;104345;-79
2023/04/17 07:53:34;;;;;;;11.73;4.37;;;;;;;10.48;81.80;100784.34;123889;1099;104286;-80
2023/04/17 07:56:06;;;;;;;9.93;4.20;;;;;;;10.53;82.36;100781.91;123964;1099;104341;-81
2023/04/17 07:58:38;;;;;;;10.50;4.47;;;;;;;10.59;81.92;100784.78;123997;1099;104240;-82
2023/04/17 08:01:09;;;;;;;12.40;3.77;;;;;;;10.51;80.91;100780.97;124237;1099;104165;-81
2023/04/17 08:03:43;;;;;;;7.47;4.17;;;;;;;10.48;78.78;100783.47;123975;1099;104492;-81
2023/04/17 08:06:14;;;;;;;10.23;3.90;;;;;;;10.43;78.24;100785.90;123852;1099;104264;-80
2023/04/17 08:08:46;;;;;;;7.70;3.93;;;;;;;10.41;78.59;100780.59;124112;1099;105653;-81
2023/04/17 08:11:17;;;;;;;10.43;3.90;;;;;;;10.39;79.78;100779.64;123937;1099;104265;-82
2023/04/17 08:13:49;;;;;;;9.05;3.95;;;;;;;10.46;80.35;100772.91;123987;1099;104501;-82
2023/04/17 08:16:20;;;;;;;11.17;4.30;;;;;;;10.45;79.67;100776.35;123795;1099;104366;-81
2023/04/17 08:18:51;;;;;;;10.30;4.27;;;;;;;10.34;77.38;100773.29;124141;1099;104277;-82
2023/04/17 08:21:23;;;;;;;11.50;4.07;;;;;;;10.30;76.91;100773.98;123992;1099;104152;-81
2023/04/17 08:23:54;;;;;;;8.80;3.83;;;;;;;10.29;77.45;100780.05;123818;1100;104322;-80
2023/04/17 08:26:25;;;;;;;9.10;3.90;;;;;;;10.28;77.50;100767.76;123659;1100;104361;-80
2023/04/17 08:29:00;;;;;;;9.33;3.43;;;;;;;10.33;77.82;100765.36;123875;1099;104497;-81
2023/04/17 08:31:35;;;;;;;7.33;3.50;;;;;;;10.35;78.34;100764.60;123777;1099;104207;-80
2023/04/17 08:34:06;;;;;;;9.40;3.60;;;;;;;10.37;76.46;100770.80;123785;1099;104766;-81
2023/04/17 08:36:38;;;;;;;8.77;3.93;;;;;;;10.40;77.61;100765.67;123697;1100;104329;-82
2023/04/17 08:39:10;;;;;;;7.87;3.70;;;;;;;10.40;77.06;100755.18;123827;1099;104307;-83
2023/04/17 08:41:49;;;;;;;8.67;4.17;;;;;;;10.51;77.75;100759.98;123867;1098;104403;-81
2023/04/17 08:44:21;;;;;;;12.17;3.87;;;;;;;10.58;75.85;100751.49;124049;1099;104296;-81
2023/04/17 08:46:55;;;;;;;14.57;4.20;;;;;;;10.63;75.37;100755.22;124049;1099;104239;-81
2023/04/17 08:49:30;;;;;;;13.17;3.93;;;;;;;10.70;75.53;100751.09;124048;1098;104201;-81
2023/04/17 08:52:04;;;;;;;7.20;3.77;;;;;;;10.77;75.79;100750.52;124080;1099;104240;-79
2023/04/17 08:54:34;;;;;;;;;;;;;;;10.75;73.27;100747.83;124019;1099;104254;-80
2023/04/17 08:57:06;;;;;;;8.73;4.47;;;;;;;10.83;74.37;100744.58;124020;1099;104386;-80
2023/04/17 08:59:37;;;;;;;9.50;3.87;;;;;;;10.90;74.33;100750.13;123868;1099;104342;-79
2023/04/17 09:02:09;;;;;;;11.07;3.80;;;;;;;10.94;75.03;100732.78;124266;1099;104214;-79
2023/04/17 09:04:41;;;;;;;5.63;3.43;;;;;;;10.99;74.87;100732.95;123829;1099;104362;-80
2023/04/17 09:07:14;;;;;;;11.93;3.80;;;;;;;11.02;70.86;100741.84;124110;1100;104413;-84
2023/04/17 09:09:53;;;;;;;8.03;3.77;;;;;;;11.04;73.15;100737.52;124191;1099;104261;-82
2023/04/17 09:12:26;;;;;;;9.43;3.77;;;;;;;11.03;70.38;100743.64;124088;1099;104251;-80
2023/04/17 09:14:57;;;;;;;10.20;3.50;;;;;;;10.97;70.74;100732.91;124076;1099;104225;-81
2023/04/17 09:17:36;;;;;;;9.63;3.50;;;;;;;10.99;71.94;100730.33;124230;1099;104166;-80
2023/04/17 09:20:10;;;;;;;9.33;3.57;;;;;;;11.06;71.71;100735.84;123927;1099;104383;-80
2023/04/17 09:22:42;;;;;;;9.15;3.55;;;;;;;11.14;70.79;100731.80;124206;1099;104296;-83
2023/04/17 09:25:19;;;;;;;10.70;3.90;;;;;;;11.25;72.47;100732.19;123670;1099;104172;-81
2023/04/17 09:27:51;;;;;;;10.80;3.87;;;;;;;11.30;73.06;100727.11;124115;1099;104241;-80
2023/04/17 09:30:25;;;;;;;10.87;3.73;;;;;;;11.33;70.83;100719.34;124017;1099;104194;-81
2023/04/17 09:33:07;;;;;;;11.57;3.70;;;;;;;11.24;68.08;100726.88;124028;1099;104267;-80
2023/04/17 09:35:39;;;;;;;5.37;3.40;;;;;;;11.24;71.33;100724.25;124215;1098;104641;-81
2023/04/17 09:38:10;;;;;;;9.30;3.50;;;;;;;11.25;70.92;100726.02;124022;1099;104265;-80
2023/04/17 09:40:44;;;;;;;8.23;3.60;;;;;;;11.26;71.27;100714.69;123912;1099;104384;-82
2023/04/17 09:43:15;;;;;;;12.60;3.70;;;;;;;11.28;70.30;100713.00;124049;1099;104616;-83
2023/04/17 09:45:47;;;;;;;8.93;4.13;;;;;;;11.32;71.35;100707.03;124058;1099;104418;-83
2023/04/17 09:48:19;;;;;;;10.63;3.97;;;;;;;11.40;72.10;100700.30;123856;1099;104285;-80
2023/04/17 09:50:51;;;;;;;7.60;3.93;;;;;;;11.41;71.46;100701.22;123923;1098;104408;-80
2023/04/17 09:53:23;;;;;;;8.67;3.77;;;;;;;11.42;71.06;100708.23;123970;1099;104239;-79
2023/04/17 09:55:54;;;;;;;11.00;3.77;;;;;;;11.45;70.31;100708.34;123863;1099;104372;-80
2023/04/17 09:58:26;;;;;;;7.27;4.03;;;;;;;11.53;69.87;100700.73;123894;1099;104271;-80
2023/04/17 10:00:57;;;;;;;11.47;3.90;;;;;;;11.60;69.65;100703.63;123925;1099;104329;-83
2023/04/17 10:03:29;;;;;;;10.23;3.90;;;;;;;11.71;70.13;100701.37;124084;1099;104277;-82
2023/04/17 10:06:01;;;;;;;11.60;3.57;;;;;;;11.74;69.82;100696.22;124152;1099;104273;-80
2023/04/17 10:08:34;;;;;;;6.23;3.57;;;;;;;11.66;67.53;100697.70;123957;1099;104337;-82
2023/04/17 10:11:08;;;;;;;10.60;3.90;;;;;;;11.66;68.50;100700.34;123955;1099;104408;-80
2023/04/17 10:13:42;;;;;;;7.93;3.70;;;;;;;11.62;67.64;100698.43;123821;1097;104242;-82
2023/04/17 10:16:13;;;;;;;8.03;3.55;;;;;;;11.57;65.83;100689.50;124166;1099;104348;-81
2023/04/17 10:18:44;;;;;;;10.00;3.60;;;;;;;11.55;65.55;100686.82;123941;1099;104223;-80
2023/04/17 10:21:24;;;;;;;8.83;3.93;;;;;;;11.58;66.67;100683.42;123699;1099;104239;-81
2023/04/17 10:23:55;;;;;;;14.65;3.70;;;;;;;11.59;66.26;100680.80;123794;1099;104354;-81
2023/04/17 10:26:46;;;;;;;6.97;3.33;;;;;;;11.64;65.39;100688.85;123942;1099;104283;-81
2023/04/17 10:29:17;;;;;;;10.53;3.60;;;;;;;11.62;66.19;100672.14;124011;1099;104242;-78
2023/04/17 10:32:23;;;;;;;11.20;3.60;;;;;;;11.69;64.83;100679.41;124023;1099;104295;-80
2023/04/17 10:34:55;;;;;;;9.40;3.63;;;;;;;11.66;63.86;100668.80;123426;1102;104370;-79
2023/04/17 10:37:57;;;;;;;9.30;3.47;;;;;;;11.75;65.64;100673.45;124415;1102;104368;-83
2023/04/17 10:40:32;;;;;;;7.60;3.33;;;;;;;11.84;63.38;100681.64;123676;1099;104290;-77
2023/04/17 10:43:11;;;;;;;10.93;3.70;;;;;;;11.85;65.39;100680.81;124051;1099;110903;-80
2023/04/17 10:45:57;;;;;;;12.43;4.17;;;;;;;11.84;65.15;100669.41;123989;1100;104281;-79
2023/04/17 10:48:33;;;;;;;11.87;4.17;;;;;;;11.86;63.38;100666.84;123420;1099;104361;-79
2023/04/17 10:51:43;;;;;;;9.90;3.30;;;;;;;11.94;64.27;100657.48;123830;1099;104342;-78
2023/04/17 10:54:15;;;;;;;11.20;3.83;;;;;;;12.00;64.22;100669.95;124154;1099;104294;-77
2023/04/17 10:56:47;;;;;;;9.80;3.90;;;;;;;12.01;63.51;100667.37;124080;1099;104255;-79
2023/04/17 10:59:19;;;;;;;10.20;3.87;;;;;;;12.08;64.10;100671.09;123797;1099;104233;-80
2023/04/17 11:02:03;;;;;;;9.57;3.67;;;;;;;12.19;65.26;100672.31;123997;1099;104257;-80
2023/04/17 11:04:34;;;;;;;9.93;3.80;;;;;;;12.24;63.30;100677.72;124168;1098;104163;-81
2023/04/17 11:07:06;;;;;;;11.03;4.00;;;;;;;12.29;60.90;100678.75;123798;1099;104307;-78
2023/04/17 11:09:38;;;;;;;8.25;3.85;;;;;;;12.45;64.91;100684.50;123834;1098;104354;-77
2023/04/17 11:12:12;;;;;;;7.83;3.57;;;;;;;12.48;61.30;100680.24;123944;1099;104222;-79
2023/04/17 11:14:43;;;;;;;12.40;3.60;;;;;;;12.49;62.55;100671.48;124160;1099;104290;-81
2023/04/17 11:17:14;;;;;;;11.83;3.80;;;;;;;12.54;62.53;100664.64;124162;1099;104460;-81
2023/04/17 11:19:46;;;;;;;18.83;3.90;;;;;;;12.58;62.99;100662.98;124247;1099;104290;-80
2023/04/17 11:22:18;;;;;;;11.90;3.47;;;;;;;12.59;59.04;100659.52;124180;1099;104235;-80
2023/04/17 11:24:52;;;;;;;6.85;3.50;;;;;;;12.66;61.76;100660.58;124387;1099;104236;-82
2023/04/17 11:27:24;;;;;;;9.10;3.60;;;;;;;12.68;61.43;100662.39;123853;1100;104300;-77
2023/04/17 11:29:55;;;;;;;12.00;4.17;;;;;;;12.70;60.30;100659.80;123577;1100;104888;-81
2023/04/17 11:32:27;;;;;;;5.07;3.10;;;;;;;12.67;59.34;100667.61;124018;1099;104275;-80
2023/04/17 11:34:58;;;;;;;8.50;3.25;;;;;;;12.58;57.64;100669.12;123867;1099;104290;-80